createdAt,value
2018-10-17T00:00:17.405Z,13.17
2018-10-17T00:02:45.542Z,11.77
2018-10-17T00:05:13.836Z,11.93
2018-10-17T00:07:41.919Z,12.17
2018-10-17T00:10:10.782Z,12.60
2018-10-17T00:12:39.670Z,12.77
2018-10-17T00:15:08.481Z,12.17
2018-10-17T00:17:36.622Z,14.23
2018-10-17T00:20:05.270Z,13.40
2018-10-17T00:22:33.179Z,13.10
2018-10-17T00:25:01.096Z,13.67
2018-10-17T00:27:29.024Z,13.23
2018-10-17T00:29:57.182Z,13.00
2018-10-17T00:32:25.368Z,12.47
2018-10-17T00:34:53.832Z,12.87
2018-10-17T00:37:21.933Z,13.93
2018-10-17T00:39:50.103Z,14.07
2018-10-17T00:42:18.242Z,13.73
2018-10-17T00:44:46.201Z,13.70
2018-10-17T00:47:14.437Z,12.30
2018-10-17T00:49:42.518Z,13.47
2018-10-17T00:52:10.449Z,13.93
2018-10-17T00:54:38.618Z,13.97
2018-10-17T00:57:06.805Z,12.63
2018-10-17T00:59:34.941Z,13.53
2018-10-17T01:02:03.138Z,13.93
2018-10-17T01:04:31.043Z,13.77
2018-10-17T01:06:59.225Z,13.07
2018-10-17T01:09:27.354Z,13.23
2018-10-17T01:11:55.497Z,13.33
2018-10-17T01:14:23.437Z,12.83
2018-10-17T01:16:51.404Z,12.93
2018-10-17T01:19:19.557Z,13.40
2018-10-17T01:21:55.205Z,12.13
2018-10-17T01:24:23.143Z,12.50
2018-10-17T01:26:51.097Z,12.03
2018-10-17T01:29:19.262Z,12.90
2018-10-17T01:31:47.533Z,12.40
2018-10-17T01:34:15.755Z,14.33
2018-10-17T01:36:43.897Z,12.57
2018-10-17T01:39:12.066Z,13.30
2018-10-17T01:41:40.285Z,13.67
2018-10-17T01:44:08.875Z,13.73
2018-10-17T01:46:37.118Z,14.67
2018-10-17T01:49:05.167Z,13.63
2018-10-17T01:51:33.104Z,13.50
2018-10-17T01:54:01.005Z,13.33
2018-10-17T01:56:29.178Z,12.97
2018-10-17T01:58:57.138Z,12.57
2018-10-17T02:01:25.291Z,14.07
2018-10-17T02:03:53.442Z,13.97
2018-10-17T02:06:21.621Z,13.77
2018-10-17T02:08:49.825Z,13.90
2018-10-17T02:11:18.029Z,13.77
2018-10-17T02:13:45.920Z,13.40
2018-10-17T02:16:13.833Z,14.43
2018-10-17T02:18:41.983Z,14.60
2018-10-17T02:21:10.182Z,13.67
2018-10-17T02:23:38.378Z,13.43
2018-10-17T02:26:06.533Z,13.07
2018-10-17T02:28:34.671Z,13.73
2018-10-17T02:31:02.842Z,13.23
2018-10-17T02:33:30.942Z,13.10
2018-10-17T02:35:59.091Z,12.87
2018-10-17T02:38:26.994Z,13.37
2018-10-17T02:40:54.956Z,12.90
2018-10-17T02:43:23.058Z,12.40
2018-10-17T02:45:51.005Z,13.07
2018-10-17T02:48:18.920Z,12.37
2018-10-17T02:50:46.841Z,13.10
2018-10-17T02:53:14.798Z,13.03
2018-10-17T02:55:42.901Z,13.40
2018-10-17T02:58:11.037Z,14.17
2018-10-17T03:00:39.022Z,13.73
2018-10-17T03:03:07.198Z,14.80
2018-10-17T03:05:35.406Z,14.43
2018-10-17T03:08:03.547Z,15.93
2018-10-17T03:10:31.705Z,14.10
2018-10-17T03:13:00.366Z,15.67
2018-10-17T03:15:35.221Z,14.27
2018-10-17T03:18:03.170Z,14.00
2018-10-17T03:20:31.083Z,13.67
2018-10-17T03:22:59.001Z,14.30
2018-10-17T03:25:26.923Z,14.57
2018-10-17T03:27:54.916Z,14.93
2018-10-17T03:30:22.841Z,15.07
2018-10-17T03:32:50.987Z,14.53
2018-10-17T03:35:19.214Z,13.93
2018-10-17T03:37:47.331Z,14.77
2018-10-17T03:40:15.504Z,14.87
2018-10-17T03:42:43.649Z,13.87
2018-10-17T03:45:11.845Z,15.07
2018-10-17T03:47:39.998Z,13.93
2018-10-17T03:50:08.174Z,13.37
2018-10-17T03:52:36.397Z,13.43
2018-10-17T03:55:04.745Z,13.83
2018-10-17T03:57:32.645Z,14.70
2018-10-17T04:00:00.803Z,13.53
2018-10-17T04:02:28.933Z,16.53
2018-10-17T04:04:57.140Z,14.63
2018-10-17T04:07:24.994Z,13.80
2018-10-17T04:09:53.141Z,14.37
2018-10-17T04:12:21.302Z,13.70
2018-10-17T04:14:49.244Z,14.60
2018-10-17T04:17:17.312Z,14.30
2018-10-17T04:19:45.146Z,14.07
2018-10-17T04:22:13.245Z,14.40
2018-10-17T04:24:41.190Z,14.17
2018-10-17T04:27:09.125Z,14.23
2018-10-17T04:29:37.423Z,14.70
2018-10-17T04:32:05.670Z,13.57
2018-10-17T04:34:33.870Z,14.00
2018-10-17T04:37:02.158Z,14.37
2018-10-17T04:39:30.026Z,14.67
2018-10-17T04:41:58.178Z,14.53
2018-10-17T04:44:26.138Z,15.73
2018-10-17T04:46:54.309Z,14.43
2018-10-17T04:49:22.512Z,13.80
2018-10-17T04:51:50.670Z,14.30
2018-10-17T04:54:18.627Z,14.83
2018-10-17T04:56:46.810Z,19.10
2018-10-17T04:59:14.823Z,18.47
2018-10-17T05:01:42.898Z,16.97
2018-10-17T05:04:11.033Z,15.17
2018-10-17T05:06:39.041Z,15.13
2018-10-17T05:09:09.021Z,14.83
2018-10-17T05:11:37.486Z,14.10
2018-10-17T05:14:05.656Z,14.17
2018-10-17T05:16:33.831Z,14.47
2018-10-17T05:19:02.090Z,14.43
2018-10-17T05:21:30.161Z,15.17
2018-10-17T05:23:58.325Z,13.73
2018-10-17T05:26:26.494Z,14.70
2018-10-17T05:28:54.479Z,14.07
2018-10-17T05:31:22.410Z,14.57
2018-10-17T05:33:50.351Z,14.47
2018-10-17T05:36:18.542Z,14.70
2018-10-17T05:38:46.691Z,14.70
2018-10-17T05:41:15.026Z,13.40
2018-10-17T05:43:43.121Z,14.77
2018-10-17T05:46:11.052Z,13.57
2018-10-17T05:48:38.996Z,15.00
2018-10-17T05:51:06.917Z,15.13
2018-10-17T05:53:35.005Z,15.13
2018-10-17T05:56:03.012Z,14.60
2018-10-17T05:58:30.965Z,15.00
2018-10-17T06:00:59.185Z,15.33
2018-10-17T06:03:27.330Z,15.63
2018-10-17T06:05:55.541Z,15.53
2018-10-17T06:08:23.703Z,14.87
2018-10-17T06:10:51.684Z,14.43
2018-10-17T06:13:19.572Z,14.83
2018-10-17T06:15:47.771Z,14.20
2018-10-17T06:18:15.992Z,14.60
2018-10-17T06:20:43.950Z,15.53
2018-10-17T06:23:11.944Z,15.07
2018-10-17T06:25:40.114Z,15.10
2018-10-17T06:28:08.342Z,14.20
2018-10-17T06:30:36.583Z,15.30
2018-10-17T06:33:04.473Z,15.40
2018-10-17T06:35:32.630Z,15.50
2018-10-17T06:38:00.830Z,16.23
2018-10-17T06:40:29.014Z,14.67
2018-10-17T06:42:57.250Z,16.03
2018-10-17T06:45:25.462Z,15.83
2018-10-17T06:47:53.632Z,16.30
2018-10-17T06:50:21.962Z,16.17
2018-10-17T06:52:49.946Z,15.90
2018-10-17T06:55:18.551Z,15.30
2018-10-17T06:57:46.765Z,15.40
2018-10-17T07:00:14.696Z,15.83
2018-10-17T07:02:42.885Z,15.43
2018-10-17T07:05:11.494Z,16.13
2018-10-17T07:07:40.121Z,15.77
2018-10-17T07:10:08.328Z,15.27
2018-10-17T07:12:36.518Z,16.00
2018-10-17T07:15:05.937Z,16.03
2018-10-17T07:17:34.062Z,15.63
2018-10-17T07:20:02.274Z,15.47
2018-10-17T07:22:30.427Z,16.30
2018-10-17T07:24:58.859Z,15.27
2018-10-17T07:27:27.095Z,16.70
2018-10-17T07:29:55.377Z,16.50
2018-10-17T07:32:23.514Z,16.20
2018-10-17T07:34:51.706Z,16.27
2018-10-17T07:37:19.616Z,16.13
2018-10-17T07:39:47.965Z,16.53
2018-10-17T07:42:16.151Z,16.53
2018-10-17T07:44:44.118Z,16.30
2018-10-17T07:47:12.282Z,16.47
2018-10-17T07:49:40.302Z,17.17
2018-10-17T07:52:08.539Z,16.73
2018-10-17T07:54:36.462Z,16.20
2018-10-17T07:57:04.979Z,15.50
2018-10-17T07:59:33.292Z,13.83
2018-10-17T08:02:01.496Z,17.10
2018-10-17T08:04:29.745Z,14.73
2018-10-17T08:06:57.712Z,14.50
2018-10-17T08:09:25.952Z,15.97
2018-10-17T08:11:53.875Z,15.57
2018-10-17T08:14:22.083Z,14.40
2018-10-17T08:16:50.022Z,17.33
2018-10-17T08:19:18.254Z,16.43
2018-10-17T08:21:46.184Z,16.37
2018-10-17T08:24:14.521Z,16.43
2018-10-17T08:26:42.422Z,16.17
2018-10-17T08:29:10.658Z,15.97
2018-10-17T08:31:38.620Z,16.90
2018-10-17T08:34:06.903Z,16.77
2018-10-17T08:36:35.290Z,16.80
2018-10-17T08:39:04.802Z,15.80
2018-10-17T08:41:32.740Z,16.67
2018-10-17T08:44:00.913Z,16.77
2018-10-17T08:46:28.853Z,18.03
2018-10-17T08:48:56.818Z,16.77
2018-10-17T08:51:24.766Z,16.13
2018-10-17T08:53:52.962Z,16.73
2018-10-17T08:56:21.178Z,15.97
2018-10-17T08:58:49.117Z,15.50
2018-10-17T09:01:17.306Z,17.03
2018-10-17T09:03:45.485Z,16.07
2018-10-17T09:06:13.724Z,15.50
2018-10-17T09:08:41.629Z,15.50
2018-10-17T09:11:09.822Z,16.00
2018-10-17T09:13:37.801Z,15.73
2018-10-17T09:16:06.126Z,15.53
2018-10-17T09:18:34.247Z,15.57
2018-10-17T09:21:02.905Z,15.33
2018-10-17T09:23:30.636Z,15.20
2018-10-17T09:25:58.614Z,14.57
2018-10-17T09:28:26.566Z,14.13
2018-10-17T09:30:54.775Z,14.80
2018-10-17T09:33:22.953Z,13.33
2018-10-17T09:35:51.143Z,12.40
2018-10-17T09:38:19.414Z,16.13
2018-10-17T09:40:47.386Z,16.60
2018-10-17T09:43:15.649Z,15.27
2018-10-17T09:45:43.606Z,15.07
2018-10-17T09:48:11.901Z,14.30
2018-10-17T09:50:39.757Z,15.13
2018-10-17T09:53:08.004Z,14.63
2018-10-17T09:55:36.187Z,13.77
2018-10-17T09:58:04.397Z,13.57
2018-10-17T10:00:38.038Z,14.10
2018-10-17T10:03:06.067Z,14.27
2018-10-17T10:05:34.069Z,13.57
2018-10-17T10:08:02.317Z,14.17
2018-10-17T10:10:30.473Z,13.43
2018-10-17T10:12:58.505Z,13.63
2018-10-17T10:15:26.681Z,12.90
2018-10-17T10:17:54.621Z,13.87
2018-10-17T10:20:22.793Z,13.37
2018-10-17T10:22:51.169Z,14.00
2018-10-17T10:25:19.158Z,12.37
2018-10-17T10:27:47.105Z,13.17
2018-10-17T10:30:15.313Z,12.30
2018-10-17T10:32:43.505Z,12.37
2018-10-17T10:35:11.709Z,12.20
2018-10-17T10:37:39.648Z,11.57
2018-10-17T10:40:08.014Z,11.17
2018-10-17T10:42:36.176Z,11.50
2018-10-17T10:45:04.901Z,10.63
2018-10-17T10:47:32.738Z,10.43
2018-10-17T10:50:00.995Z,10.13
2018-10-17T10:52:29.039Z,10.10
2018-10-17T10:54:57.015Z,10.87
2018-10-17T10:57:25.195Z,9.50
2018-10-17T10:59:53.393Z,10.40
2018-10-17T11:02:21.670Z,9.57
2018-10-17T11:04:49.743Z,9.50
2018-10-17T11:07:17.895Z,9.20
2018-10-17T11:09:46.085Z,9.37
2018-10-17T11:12:14.286Z,9.33
2018-10-17T11:14:42.385Z,9.30
2018-10-17T11:17:10.445Z,9.43
2018-10-17T11:19:38.578Z,8.80
2018-10-17T11:22:07.013Z,8.47
2018-10-17T11:24:35.130Z,8.30
2018-10-17T11:27:03.175Z,9.27
2018-10-17T11:29:31.286Z,8.43
2018-10-17T11:32:02.465Z,8.30
2018-10-17T11:34:30.478Z,8.57
2018-10-17T11:36:58.679Z,7.47
2018-10-17T11:39:26.931Z,8.50
2018-10-17T11:41:54.871Z,7.33
2018-10-17T11:44:22.829Z,8.60
2018-10-17T11:46:50.822Z,7.93
2018-10-17T11:49:18.741Z,8.10
2018-10-17T11:51:46.732Z,8.00
2018-10-17T11:54:14.785Z,7.97
2018-10-17T11:56:43.199Z,7.53
2018-10-17T11:59:11.506Z,7.10
2018-10-17T12:01:39.704Z,7.20
2018-10-17T12:04:07.811Z,7.03
2018-10-17T12:06:35.921Z,7.33
2018-10-17T12:09:06.120Z,7.23
2018-10-17T12:11:34.239Z,7.03
2018-10-17T12:14:02.416Z,6.23
2018-10-17T12:16:30.364Z,6.33
2018-10-17T12:18:58.354Z,7.10
2018-10-17T12:21:26.287Z,6.97
2018-10-17T12:23:54.192Z,6.43
2018-10-17T12:26:22.366Z,5.30
2018-10-17T12:28:50.594Z,4.77
2018-10-17T12:31:18.659Z,6.10
2018-10-17T12:33:46.838Z,6.23
2018-10-17T12:36:15.051Z,5.63
2018-10-17T12:38:42.992Z,5.70
2018-10-17T12:41:11.345Z,5.97
2018-10-17T12:43:39.182Z,6.47
2018-10-17T12:46:07.330Z,5.30
2018-10-17T12:48:35.282Z,5.40
2018-10-17T12:51:03.215Z,6.13
2018-10-17T12:53:31.233Z,6.47
2018-10-17T12:55:59.166Z,6.67
2018-10-17T12:58:27.358Z,6.10
2018-10-17T13:00:55.331Z,6.47
2018-10-17T13:03:23.627Z,6.93
2018-10-17T13:05:51.930Z,6.63
2018-10-17T13:08:20.176Z,6.30
2018-10-17T13:10:48.355Z,6.20
2018-10-17T13:13:16.674Z,5.87
2018-10-17T13:15:44.524Z,5.87
2018-10-17T13:18:12.770Z,5.97
2018-10-17T13:20:40.732Z,5.77
2018-10-17T13:23:09.032Z,5.80
2018-10-17T13:25:36.949Z,5.77
2018-10-17T13:28:05.175Z,5.93
2018-10-17T13:30:33.386Z,5.47
2018-10-17T13:33:01.380Z,5.70
2018-10-17T13:35:29.618Z,7.07
2018-10-17T13:37:57.840Z,6.30
2018-10-17T13:40:25.776Z,6.93
2018-10-17T13:42:53.974Z,6.30
2018-10-17T13:45:22.152Z,6.87
2018-10-17T13:47:50.185Z,6.40
2018-10-17T13:50:18.130Z,6.33
2018-10-17T13:52:46.076Z,6.87
2018-10-17T13:55:14.408Z,6.93
2018-10-17T13:57:42.626Z,6.13
2018-10-17T14:00:12.616Z,6.13
2018-10-17T14:02:41.105Z,6.53
2018-10-17T14:05:09.024Z,6.53
2018-10-17T14:07:36.993Z,7.07
2018-10-17T14:10:05.529Z,6.23
2018-10-17T14:12:34.142Z,6.87
2018-10-17T14:15:02.328Z,6.20
2018-10-17T14:17:30.501Z,7.03
2018-10-17T14:19:58.707Z,6.60
2018-10-17T14:22:26.910Z,6.03
2018-10-17T14:24:54.849Z,6.10
2018-10-17T14:27:23.025Z,6.73
2018-10-17T14:29:50.947Z,6.40
2018-10-17T14:32:19.221Z,6.63
2018-10-17T14:34:47.430Z,6.13
2018-10-17T14:37:15.388Z,6.27
2018-10-17T14:39:43.353Z,6.40
2018-10-17T14:42:11.548Z,5.87
2018-10-17T14:44:39.723Z,5.90
2018-10-17T14:47:07.628Z,6.27
2018-10-17T14:49:35.834Z,5.80
2018-10-17T14:52:04.036Z,6.47
2018-10-17T14:54:32.278Z,5.80
2018-10-17T14:57:00.528Z,6.17
2018-10-17T14:59:28.670Z,5.90
2018-10-17T15:01:56.837Z,6.10
2018-10-17T15:04:24.994Z,6.03
2018-10-17T15:06:52.965Z,6.30
2018-10-17T15:09:21.355Z,6.33
2018-10-17T15:11:49.359Z,6.27
2018-10-17T15:14:17.437Z,6.50
2018-10-17T15:16:45.482Z,6.10
2018-10-17T15:19:13.619Z,6.20
2018-10-17T15:21:41.537Z,6.10
2018-10-17T15:24:09.830Z,6.40
2018-10-17T15:26:37.965Z,5.97
2018-10-17T15:29:06.154Z,5.87
2018-10-17T15:31:34.447Z,6.33
2018-10-17T15:34:02.852Z,5.97
2018-10-17T15:36:30.999Z,5.70
2018-10-17T15:38:59.269Z,6.00
2018-10-17T15:41:27.423Z,6.40
2018-10-17T15:43:55.618Z,6.30
2018-10-17T15:46:23.606Z,6.57
2018-10-17T15:48:51.763Z,6.20
2018-10-17T15:51:20.015Z,5.93
2018-10-17T15:53:47.970Z,6.10
2018-10-17T15:56:16.187Z,6.27
2018-10-17T15:58:44.134Z,6.20
2018-10-17T16:01:12.272Z,6.53
2018-10-17T16:03:40.302Z,6.60
2018-10-17T16:06:08.524Z,7.00
2018-10-17T16:08:36.693Z,6.67
2018-10-17T16:11:05.043Z,6.70
2018-10-17T16:13:33.334Z,6.83
2018-10-17T16:16:01.501Z,6.73
2018-10-17T16:18:29.698Z,7.60
2018-10-17T16:20:57.619Z,6.53
2018-10-17T16:23:25.595Z,7.00
2018-10-17T16:25:53.851Z,7.23
2018-10-17T16:28:21.738Z,6.60
2018-10-17T16:30:50.095Z,6.47
2018-10-17T16:33:18.202Z,7.67
2018-10-17T16:35:46.442Z,7.73
2018-10-17T16:38:14.762Z,8.00
2018-10-17T16:40:42.911Z,7.87
2018-10-17T16:43:11.056Z,7.83
2018-10-17T16:45:39.018Z,8.07
2018-10-17T16:48:07.062Z,8.57
2018-10-17T16:50:35.017Z,8.37
2018-10-17T16:53:02.853Z,9.00
2018-10-17T16:55:31.037Z,7.93
2018-10-17T16:57:59.307Z,8.90
2018-10-17T17:00:27.455Z,9.20
2018-10-17T17:02:55.685Z,12.63
2018-10-17T17:05:23.726Z,12.80
2018-10-17T17:07:52.050Z,10.47
2018-10-17T17:10:20.241Z,11.73
2018-10-17T17:12:48.158Z,10.33
2018-10-17T17:15:16.444Z,10.47
2018-10-17T17:17:44.307Z,9.80
2018-10-17T17:20:12.683Z,10.37
2018-10-17T17:22:41.390Z,9.30
2018-10-17T17:25:09.634Z,8.70
2018-10-17T17:27:37.976Z,8.73
2018-10-17T17:30:11.966Z,12.20
2018-10-17T17:32:40.285Z,9.97
2018-10-17T17:35:08.457Z,10.10
2018-10-17T17:37:36.429Z,11.20
2018-10-17T17:40:05.567Z,10.53
2018-10-17T17:42:33.506Z,10.23
2018-10-17T17:45:01.665Z,11.27
2018-10-17T17:47:29.898Z,14.17
2018-10-17T17:49:57.859Z,12.33
2018-10-17T17:52:26.151Z,12.27
2018-10-17T17:54:54.249Z,12.37
2018-10-17T17:57:22.427Z,12.13
2018-10-17T17:59:50.364Z,10.87
2018-10-17T18:02:18.596Z,9.73
2018-10-17T18:04:46.770Z,10.40
2018-10-17T18:07:14.929Z,9.97
2018-10-17T18:09:43.097Z,10.23
2018-10-17T18:12:11.362Z,9.90
2018-10-17T18:14:39.290Z,10.73
2018-10-17T18:17:07.233Z,10.83
2018-10-17T18:19:35.149Z,9.87
2018-10-17T18:22:03.149Z,11.17
2018-10-17T18:24:31.004Z,9.97
2018-10-17T18:26:58.949Z,10.70
2018-10-17T18:29:27.154Z,11.07
2018-10-17T18:31:55.754Z,12.27
2018-10-17T18:34:23.981Z,11.80
2018-10-17T18:36:52.148Z,10.90
2018-10-17T18:39:27.193Z,11.43
2018-10-17T18:41:55.517Z,10.93
2018-10-17T18:44:23.790Z,10.53
2018-10-17T18:46:51.954Z,10.87
2018-10-17T18:49:20.127Z,13.80
2018-10-17T18:51:48.075Z,13.60
2018-10-17T18:54:16.014Z,13.53
2018-10-17T18:56:44.161Z,12.47
2018-10-17T18:59:12.356Z,12.57
2018-10-17T19:01:40.735Z,13.07
2018-10-17T19:04:08.819Z,15.17
2018-10-17T19:06:36.989Z,15.20
2018-10-17T19:09:08.791Z,14.77
2018-10-17T19:11:36.904Z,14.23
2018-10-17T19:14:05.270Z,14.57
2018-10-17T19:16:33.469Z,12.87
2018-10-17T19:19:01.681Z,14.23
2018-10-17T19:21:29.890Z,12.77
2018-10-17T19:23:57.808Z,14.23
2018-10-17T19:26:25.966Z,15.03
2018-10-17T19:28:54.246Z,14.03
2018-10-17T19:31:22.454Z,14.90
2018-10-17T19:33:50.688Z,14.60
2018-10-17T19:36:18.866Z,14.60
2018-10-17T19:38:47.222Z,14.00
2018-10-17T19:41:15.382Z,16.10
2018-10-17T19:43:43.568Z,13.87
2018-10-17T19:46:11.539Z,14.27
2018-10-17T19:48:39.727Z,15.67
2018-10-17T19:51:07.920Z,14.07
2018-10-17T19:53:36.084Z,15.10
2018-10-17T19:56:04.544Z,14.00
2018-10-17T19:58:32.769Z,15.47
2018-10-17T20:01:01.187Z,15.70
2018-10-17T20:03:29.545Z,14.60
2018-10-17T20:05:57.777Z,13.80
2018-10-17T20:08:26.067Z,13.97
2018-10-17T20:10:54.290Z,13.40
2018-10-17T20:13:22.499Z,13.30
2018-10-17T20:15:50.757Z,13.93
2018-10-17T20:18:18.924Z,13.40
2018-10-17T20:20:46.970Z,14.37
2018-10-17T20:23:14.942Z,14.50
2018-10-17T20:25:43.123Z,13.83
2018-10-17T20:28:11.084Z,14.20
2018-10-17T20:30:39.245Z,14.10
2018-10-17T20:33:07.221Z,14.23
2018-10-17T20:35:35.411Z,13.07
2018-10-17T20:38:03.645Z,14.23
2018-10-17T20:40:31.945Z,14.10
2018-10-17T20:43:00.399Z,13.30
2018-10-17T20:45:28.565Z,12.57
2018-10-17T20:47:56.776Z,14.00
2018-10-17T20:50:24.693Z,25.10
2018-10-17T20:52:52.946Z,21.47
2018-10-17T20:55:21.440Z,16.03
2018-10-17T20:57:49.544Z,16.13
2018-10-17T21:00:17.850Z,17.87
2018-10-17T21:05:27.054Z,13.97
2018-10-17T21:07:55.278Z,13.63
2018-10-17T21:10:23.468Z,14.77
2018-10-17T21:12:51.714Z,14.10
2018-10-17T21:15:19.907Z,14.27
2018-10-17T21:17:48.162Z,14.73
2018-10-17T21:20:16.161Z,14.83
2018-10-17T21:22:44.101Z,14.23
2018-10-17T21:25:12.043Z,14.10
2018-10-17T21:27:40.342Z,13.67
2018-10-17T21:30:09.246Z,14.43
2018-10-17T21:32:37.208Z,13.63
2018-10-17T21:35:06.127Z,13.83
2018-10-17T21:37:34.389Z,15.83
2018-10-17T21:40:02.301Z,21.87
2018-10-17T21:42:30.510Z,17.03
2018-10-17T21:44:59.027Z,15.40
2018-10-17T21:47:27.186Z,14.33
2018-10-17T21:49:55.244Z,15.17
2018-10-17T21:52:23.177Z,13.83
2018-10-17T21:54:51.161Z,14.67
2018-10-17T21:57:19.378Z,13.90
2018-10-17T21:59:47.620Z,14.77
2018-10-17T22:02:15.841Z,13.17
2018-10-17T22:04:43.977Z,13.83
2018-10-17T22:07:12.157Z,13.60
2018-10-17T22:09:40.335Z,13.70
2018-10-17T22:12:08.502Z,13.67
2018-10-17T22:14:36.783Z,13.60
2018-10-17T22:17:06.705Z,14.53
2018-10-17T22:19:35.913Z,13.57
2018-10-17T22:22:03.956Z,14.20
2018-10-17T22:24:32.173Z,13.10
2018-10-17T22:27:00.354Z,14.60
2018-10-17T22:29:28.582Z,13.70
2018-10-17T22:31:56.769Z,14.80
2018-10-17T22:34:25.038Z,14.00
2018-10-17T22:36:53.245Z,13.57
2018-10-17T22:39:21.490Z,14.40
2018-10-17T22:41:49.647Z,13.57
2018-10-17T22:44:17.838Z,14.83
2018-10-17T22:46:46.017Z,16.33
2018-10-17T22:49:14.202Z,14.83
2018-10-17T22:51:42.373Z,14.77
2018-10-17T22:54:10.547Z,14.87
2018-10-17T22:56:39.374Z,14.90
2018-10-17T22:59:07.394Z,13.77
2018-10-17T23:01:36.132Z,14.70
2018-10-17T23:04:04.575Z,14.37
2018-10-17T23:06:32.746Z,14.27
2018-10-17T23:09:00.757Z,14.67
2018-10-17T23:11:28.957Z,14.90
2018-10-17T23:13:57.204Z,13.77
2018-10-17T23:16:25.134Z,14.40
2018-10-17T23:18:53.057Z,14.67
2018-10-17T23:21:20.989Z,15.10
2018-10-17T23:23:49.131Z,16.00
2018-10-17T23:26:17.143Z,14.20
2018-10-17T23:28:45.231Z,14.53
2018-10-17T23:31:13.169Z,15.60
2018-10-17T23:33:41.334Z,15.87
2018-10-17T23:36:09.525Z,15.40
2018-10-17T23:38:37.771Z,15.47
2018-10-17T23:41:06.042Z,14.63
2018-10-17T23:43:34.068Z,15.17
2018-10-17T23:46:02.226Z,15.07
2018-10-17T23:48:30.393Z,15.23
2018-10-17T23:50:58.568Z,17.53
2018-10-17T23:53:26.745Z,16.57
2018-10-17T23:55:54.995Z,15.47
2018-10-17T23:58:22.909Z,15.53
